createdAt,value
2019-03-10T00:02:12.962Z,113.80
2019-03-10T00:07:15.345Z,102.32
2019-03-10T00:09:46.693Z,95.47
2019-03-10T00:12:19.222Z,95.85
2019-03-10T00:14:50.532Z,95.05
2019-03-10T00:17:21.894Z,81.63
2019-03-10T00:19:53.370Z,72.22
2019-03-10T00:22:24.939Z,77.92
2019-03-10T00:24:56.289Z,73.85
2019-03-10T00:27:27.546Z,71.80
2019-03-10T00:29:58.975Z,74.30
2019-03-10T00:32:31.602Z,71.10
2019-03-10T00:35:02.803Z,69.45
2019-03-10T00:37:34.247Z,72.65
2019-03-10T00:40:08.734Z,74.35
2019-03-10T00:42:58.448Z,77.03
2019-03-10T00:45:35.955Z,78.35
2019-03-10T00:48:30.364Z,73.65
2019-03-10T00:51:21.667Z,80.75
2019-03-10T00:53:53.199Z,94.83
2019-03-10T00:56:24.524Z,91.37
2019-03-10T00:58:55.793Z,81.80
2019-03-10T01:01:27.260Z,92.55
2019-03-10T01:03:58.697Z,69.82
2019-03-10T01:06:30.110Z,88.25
2019-03-10T01:09:01.589Z,88.22
2019-03-10T01:11:34.568Z,89.55
2019-03-10T01:14:05.893Z,80.97
2019-03-10T01:16:37.081Z,55.20
2019-03-10T01:19:08.456Z,87.65
2019-03-10T01:21:40.270Z,86.32
2019-03-10T01:24:11.718Z,86.47
2019-03-10T01:26:43.067Z,82.33
2019-03-10T01:29:14.539Z,78.87
2019-03-10T01:31:51.874Z,82.37
2019-03-10T01:34:45.547Z,71.70
2019-03-10T01:37:16.772Z,79.07
2019-03-10T01:39:48.029Z,70.47
2019-03-10T01:42:19.420Z,75.83
2019-03-10T01:44:50.773Z,65.37
2019-03-10T01:47:22.108Z,70.50
2019-03-10T01:49:53.309Z,67.12
2019-03-10T01:52:24.656Z,51.80
2019-03-10T01:54:56.013Z,68.42
2019-03-10T01:57:27.277Z,67.15
2019-03-10T01:59:58.691Z,79.67
2019-03-10T02:02:30.010Z,81.32
2019-03-10T02:05:01.365Z,85.10
2019-03-10T02:07:33.022Z,84.62
2019-03-10T02:10:06.847Z,70.08
2019-03-10T02:12:38.297Z,71.67
2019-03-10T02:15:12.502Z,69.42
2019-03-10T02:17:43.702Z,74.20
2019-03-10T02:20:17.297Z,105.80
2019-03-10T02:22:48.673Z,105.30
2019-03-10T02:25:20.123Z,115.80
2019-03-10T02:27:52.585Z,88.10
2019-03-10T02:30:23.985Z,80.92
2019-03-10T02:32:55.250Z,112.28
2019-03-10T02:35:26.676Z,129.97
2019-03-10T02:37:58.089Z,104.30
2019-03-10T02:40:29.433Z,107.43
2019-03-10T02:43:00.752Z,103.97
2019-03-10T02:45:32.001Z,88.60
2019-03-10T02:48:03.926Z,98.33
2019-03-10T02:50:35.354Z,99.52
2019-03-10T02:53:06.675Z,93.78
2019-03-10T02:55:37.971Z,92.05
2019-03-10T02:58:09.366Z,90.92
2019-03-10T03:00:40.711Z,63.50
2019-03-10T03:03:12.187Z,86.00
2019-03-10T03:05:43.566Z,74.10
2019-03-10T03:08:16.942Z,72.08
2019-03-10T03:10:48.077Z,75.92
2019-03-10T03:13:19.512Z,83.85
2019-03-10T03:15:50.847Z,77.67
2019-03-10T03:18:22.250Z,71.17
2019-03-10T03:20:53.770Z,71.20
2019-03-10T03:23:25.104Z,69.67
2019-03-10T03:25:56.338Z,66.80
2019-03-10T03:28:27.601Z,76.20
2019-03-10T03:30:59.100Z,71.75
2019-03-10T03:33:30.470Z,73.67
2019-03-10T03:36:05.069Z,72.40
2019-03-10T03:38:42.591Z,69.42
2019-03-10T03:41:19.886Z,73.10
2019-03-10T03:43:51.112Z,77.92
2019-03-10T03:46:22.452Z,77.92
2019-03-10T03:48:53.682Z,81.95
2019-03-10T03:51:25.097Z,84.62
2019-03-10T03:53:56.468Z,85.25
2019-03-10T03:56:28.078Z,76.47
2019-03-10T03:58:59.329Z,79.25
2019-03-10T04:01:32.201Z,84.85
2019-03-10T04:04:03.392Z,73.33
2019-03-10T04:06:34.734Z,70.22
2019-03-10T04:09:08.064Z,77.95
2019-03-10T04:11:39.387Z,77.72
2019-03-10T04:14:10.748Z,70.15
2019-03-10T04:16:42.088Z,88.90
2019-03-10T04:19:13.664Z,82.82
2019-03-10T04:21:45.195Z,93.65
2019-03-10T04:24:16.535Z,89.62
2019-03-10T04:26:47.953Z,79.15
2019-03-10T04:29:21.583Z,91.15
2019-03-10T04:31:52.330Z,83.47
2019-03-10T04:34:23.741Z,65.97
2019-03-10T04:36:55.000Z,82.72
2019-03-10T04:39:26.370Z,83.78
2019-03-10T04:41:57.615Z,77.10
2019-03-10T04:44:29.014Z,88.58
2019-03-10T04:47:00.475Z,84.52
2019-03-10T04:49:31.768Z,72.00
2019-03-10T04:52:03.182Z,67.97
2019-03-10T04:54:52.572Z,87.82
2019-03-10T04:57:24.362Z,70.70
2019-03-10T04:59:55.749Z,81.12
2019-03-10T05:02:27.707Z,82.33
2019-03-10T05:07:29.377Z,95.38
2019-03-10T05:10:00.699Z,96.57
2019-03-10T05:12:32.382Z,86.12
2019-03-10T05:15:05.978Z,98.10
2019-03-10T05:17:37.316Z,87.35
2019-03-10T05:20:08.954Z,89.42
2019-03-10T05:22:40.435Z,85.50
2019-03-10T05:25:18.144Z,79.58
2019-03-10T05:27:49.522Z,71.82
2019-03-10T05:30:20.935Z,75.87
2019-03-10T05:32:52.315Z,84.95
2019-03-10T05:35:23.716Z,80.20
2019-03-10T05:37:55.018Z,58.60
2019-03-10T05:40:26.297Z,70.05
2019-03-10T05:42:57.696Z,68.70
2019-03-10T05:45:28.893Z,67.65
2019-03-10T05:48:00.223Z,63.78
2019-03-10T05:50:31.657Z,61.42
2019-03-10T05:53:03.016Z,61.77
2019-03-10T05:55:34.292Z,65.67
2019-03-10T05:58:05.757Z,65.32
2019-03-10T06:00:42.633Z,47.53
2019-03-10T06:03:10.286Z,61.83
2019-03-10T06:05:41.741Z,60.35
2019-03-10T06:08:13.091Z,58.02
2019-03-10T06:10:44.651Z,58.10
2019-03-10T06:13:15.914Z,58.08
2019-03-10T06:15:47.254Z,55.83
2019-03-10T06:18:18.436Z,57.17
2019-03-10T06:20:49.849Z,54.53
2019-03-10T06:23:21.171Z,59.42
2019-03-10T06:25:52.627Z,61.98
2019-03-10T06:28:23.908Z,62.73
2019-03-10T06:30:56.411Z,44.88
2019-03-10T06:33:28.008Z,54.95
2019-03-10T06:35:59.453Z,55.92
2019-03-10T06:38:30.891Z,54.88
2019-03-10T06:41:02.182Z,55.75
2019-03-10T06:43:33.656Z,50.88
2019-03-10T06:46:05.093Z,52.27
2019-03-10T06:48:37.633Z,51.25
2019-03-10T06:51:10.089Z,51.25
2019-03-10T06:53:41.348Z,51.60
2019-03-10T06:56:12.673Z,54.38
2019-03-10T06:58:44.073Z,51.70
2019-03-10T07:01:15.433Z,49.00
2019-03-10T07:03:46.787Z,51.95
2019-03-10T07:06:18.172Z,50.63
2019-03-10T07:08:49.566Z,49.45
2019-03-10T07:11:20.906Z,53.55
2019-03-10T07:13:52.256Z,50.05
2019-03-10T07:16:23.680Z,56.68
2019-03-10T07:18:55.135Z,48.08
2019-03-10T07:21:27.613Z,51.37
2019-03-10T07:23:59.421Z,48.58
2019-03-10T07:26:30.889Z,45.58
2019-03-10T07:29:03.973Z,43.73
2019-03-10T07:31:42.819Z,44.83
2019-03-10T07:34:21.311Z,46.45
2019-03-10T07:37:12.688Z,42.78
2019-03-10T07:40:03.621Z,43.75
2019-03-10T07:42:36.700Z,43.60
2019-03-10T07:45:16.851Z,38.60
2019-03-10T07:47:55.855Z,41.73
2019-03-10T07:50:28.759Z,37.45
2019-03-10T07:53:01.690Z,41.05
2019-03-10T07:55:37.485Z,38.73
2019-03-10T07:58:10.361Z,41.37
2019-03-10T08:00:54.887Z,42.40
2019-03-10T08:03:36.628Z,37.00
2019-03-10T08:06:25.043Z,39.83
2019-03-10T08:09:09.906Z,40.17
2019-03-10T08:12:01.261Z,40.40
2019-03-10T08:14:50.201Z,42.60
2019-03-10T08:17:32.228Z,42.08
2019-03-10T08:20:05.920Z,40.67
2019-03-10T08:22:38.928Z,39.23
2019-03-10T08:25:14.480Z,42.55
2019-03-10T08:28:00.936Z,40.12
2019-03-10T08:30:31.136Z,43.78
2019-03-10T08:33:19.934Z,41.28
2019-03-10T08:36:08.085Z,44.45
2019-03-10T08:38:41.057Z,43.40
2019-03-10T08:41:28.983Z,41.98
2019-03-10T08:44:04.709Z,41.60
2019-03-10T08:46:53.336Z,40.55
2019-03-10T08:49:26.385Z,40.43
2019-03-10T08:51:59.302Z,41.37
2019-03-10T08:54:38.206Z,42.17
2019-03-10T08:57:11.111Z,39.58
2019-03-10T08:59:44.022Z,38.78
2019-03-10T09:02:17.039Z,41.75
2019-03-10T09:05:06.142Z,39.90
2019-03-10T09:07:41.840Z,44.00
2019-03-10T09:10:20.775Z,45.83
2019-03-10T09:12:56.360Z,40.43
2019-03-10T09:15:44.216Z,39.38
2019-03-10T09:18:17.176Z,38.67
2019-03-10T09:21:02.210Z,36.65
2019-03-10T09:23:35.213Z,37.13
2019-03-10T09:26:14.023Z,36.08
2019-03-10T09:28:49.769Z,35.03
2019-03-10T09:31:28.698Z,34.45
2019-03-10T09:34:04.247Z,35.03
2019-03-10T09:36:53.770Z,39.03
2019-03-10T09:39:26.614Z,31.87
2019-03-10T09:42:15.532Z,29.45
2019-03-10T09:44:57.288Z,28.45
2019-03-10T09:50:17.679Z,19.07
2019-03-10T09:53:08.618Z,21.35
2019-03-10T09:55:57.579Z,22.05
2019-03-10T09:58:31.371Z,24.80
2019-03-10T10:01:13.122Z,20.55
2019-03-10T10:03:48.926Z,21.87
2019-03-10T10:06:27.746Z,23.00
2019-03-10T10:09:17.781Z,20.70
2019-03-10T10:11:54.148Z,21.02
2019-03-10T10:14:27.183Z,18.65
2019-03-10T10:17:00.128Z,15.45
2019-03-10T10:19:36.354Z,18.02
2019-03-10T10:22:27.532Z,17.77
2019-03-10T10:25:00.393Z,16.75
2019-03-10T10:27:33.375Z,16.50
2019-03-10T10:30:12.764Z,15.75
2019-03-10T10:32:45.959Z,14.68
2019-03-10T10:35:35.423Z,16.67
2019-03-10T10:38:18.949Z,14.50
2019-03-10T10:40:57.883Z,13.20
2019-03-10T10:43:33.792Z,14.18
2019-03-10T10:46:22.853Z,13.58
2019-03-10T10:48:55.800Z,12.30
2019-03-10T10:51:31.471Z,11.65
2019-03-10T10:54:04.478Z,12.82
2019-03-10T10:56:37.466Z,12.23
2019-03-10T10:59:10.405Z,12.40
2019-03-10T11:02:00.529Z,11.53
2019-03-10T11:04:49.653Z,11.55
2019-03-10T11:07:37.515Z,11.68
2019-03-10T11:10:22.954Z,12.58
2019-03-10T11:13:12.109Z,9.85
2019-03-10T11:15:53.600Z,12.50
2019-03-10T11:18:25.829Z,13.40
2019-03-10T11:21:07.845Z,10.72
2019-03-10T11:23:46.680Z,12.82
2019-03-10T11:26:25.423Z,12.28
2019-03-10T11:29:03.805Z,12.58
2019-03-10T11:31:42.225Z,12.40
2019-03-10T11:34:27.291Z,12.05
2019-03-10T11:37:16.343Z,10.65
2019-03-10T11:39:49.425Z,11.08
2019-03-10T11:42:37.244Z,11.45
2019-03-10T11:45:11.538Z,11.45
2019-03-10T11:47:47.339Z,11.25
2019-03-10T11:50:29.500Z,12.03
2019-03-10T11:53:19.139Z,13.00
2019-03-10T11:55:49.241Z,12.20
2019-03-10T11:58:22.321Z,11.43
2019-03-10T12:00:55.685Z,10.75
2019-03-10T12:03:29.837Z,10.55
2019-03-10T12:06:05.737Z,11.35
2019-03-10T12:08:53.817Z,10.58
2019-03-10T12:11:25.644Z,10.15
2019-03-10T12:13:57.079Z,9.10
2019-03-10T12:16:31.017Z,8.13
2019-03-10T12:19:01.732Z,9.10
2019-03-10T12:21:33.283Z,8.55
2019-03-10T12:24:04.621Z,8.28
2019-03-10T12:26:36.097Z,7.92
2019-03-10T12:29:07.451Z,9.13
2019-03-10T12:31:38.786Z,9.20
2019-03-10T12:34:10.138Z,10.08
2019-03-10T12:36:41.548Z,7.60
2019-03-10T12:39:13.132Z,7.45
2019-03-10T12:41:44.587Z,8.83
2019-03-10T12:44:15.940Z,6.65
2019-03-10T12:46:47.407Z,7.50
2019-03-10T12:49:18.870Z,7.08
2019-03-10T12:51:50.354Z,8.83
2019-03-10T12:54:21.823Z,8.23
2019-03-10T12:56:53.112Z,8.60
2019-03-10T12:59:24.559Z,11.15
2019-03-10T13:01:55.876Z,12.35
2019-03-10T13:04:27.274Z,14.20
2019-03-10T13:06:58.655Z,16.55
2019-03-10T13:09:30.136Z,17.15
2019-03-10T13:12:01.496Z,13.65
2019-03-10T13:14:32.755Z,13.28
2019-03-10T13:17:04.169Z,11.85
2019-03-10T13:19:35.561Z,9.30
2019-03-10T13:22:07.042Z,9.30
2019-03-10T13:24:38.432Z,7.97
2019-03-10T13:27:10.167Z,13.75
2019-03-10T13:29:41.605Z,14.98
2019-03-10T13:32:13.101Z,16.20
2019-03-10T13:34:44.473Z,16.52
2019-03-10T13:37:16.449Z,14.93
2019-03-10T13:39:47.768Z,11.97
2019-03-10T13:42:19.194Z,13.78
2019-03-10T13:44:50.619Z,12.00
2019-03-10T13:47:21.931Z,15.55
2019-03-10T13:49:55.004Z,14.73
2019-03-10T13:52:26.420Z,16.07
2019-03-10T13:54:57.753Z,14.25
2019-03-10T13:57:30.659Z,14.75
2019-03-10T14:00:01.973Z,16.87
2019-03-10T14:02:34.703Z,17.10
2019-03-10T14:05:07.500Z,15.25
2019-03-10T14:07:39.065Z,16.60
2019-03-10T14:10:11.419Z,24.37
2019-03-10T14:12:42.836Z,65.20
2019-03-10T14:15:15.729Z,47.43
2019-03-10T14:17:47.158Z,89.05
2019-03-10T14:20:18.452Z,34.83
2019-03-10T14:22:49.776Z,19.95
2019-03-10T14:25:21.214Z,18.55
2019-03-10T14:27:52.516Z,21.25
2019-03-10T14:30:23.892Z,15.00
2019-03-10T14:32:55.357Z,21.85
2019-03-10T14:35:26.774Z,79.15
2019-03-10T14:37:58.244Z,17.42
2019-03-10T14:40:29.688Z,6.90
2019-03-10T14:43:00.856Z,4.65
2019-03-10T14:45:32.081Z,4.55
2019-03-10T14:48:03.411Z,3.77
2019-03-10T14:50:34.809Z,3.83
2019-03-10T14:53:05.992Z,2.42
2019-03-10T14:55:37.367Z,3.52
2019-03-10T14:58:08.591Z,3.70
2019-03-10T15:00:40.177Z,4.05
2019-03-10T15:03:12.115Z,3.92
2019-03-10T15:05:43.323Z,5.55
2019-03-10T15:08:14.628Z,5.97
2019-03-10T15:10:45.819Z,5.80
2019-03-10T15:13:17.080Z,8.33
2019-03-10T15:15:48.277Z,10.40
2019-03-10T15:18:19.595Z,12.63
2019-03-10T15:20:58.173Z,11.65
2019-03-10T15:23:32.697Z,12.28
2019-03-10T15:26:04.132Z,12.50
2019-03-10T15:28:35.458Z,14.53
2019-03-10T15:31:06.982Z,14.95
2019-03-10T15:33:38.319Z,15.23
2019-03-10T15:36:19.947Z,15.00
2019-03-10T15:38:42.936Z,16.02
2019-03-10T15:43:45.256Z,15.55
2019-03-10T15:46:16.714Z,9.80
2019-03-10T15:48:48.491Z,18.00
2019-03-10T15:51:21.421Z,19.42
2019-03-10T15:53:52.863Z,25.80
2019-03-10T15:56:24.239Z,25.43
2019-03-10T15:58:55.668Z,35.65
2019-03-10T16:01:27.034Z,45.43
2019-03-10T16:04:00.330Z,54.73
2019-03-10T16:06:31.943Z,53.25
2019-03-10T16:09:03.288Z,48.42
2019-03-10T16:11:36.234Z,44.08
2019-03-10T16:14:07.670Z,35.38
2019-03-10T16:16:39.027Z,26.35
2019-03-10T16:19:10.376Z,25.70
2019-03-10T16:21:41.839Z,22.27
2019-03-10T16:24:13.286Z,19.67
2019-03-10T16:26:45.721Z,19.62
2019-03-10T16:29:17.098Z,16.23
2019-03-10T16:31:48.540Z,11.68
2019-03-10T16:34:19.981Z,9.18
2019-03-10T16:36:51.234Z,9.75
2019-03-10T16:39:23.228Z,9.85
2019-03-10T16:41:54.450Z,9.27
2019-03-10T16:44:25.666Z,10.15
2019-03-10T16:46:56.899Z,12.43
2019-03-10T16:49:28.249Z,12.05
2019-03-10T16:52:00.543Z,9.78
2019-03-10T16:54:31.628Z,9.58
2019-03-10T16:57:02.886Z,10.27
2019-03-10T16:59:34.413Z,10.18
2019-03-10T17:02:05.847Z,9.43
2019-03-10T17:04:37.098Z,6.42
2019-03-10T17:07:08.315Z,9.90
2019-03-10T17:09:39.918Z,8.93
2019-03-10T17:12:10.998Z,9.10
2019-03-10T17:14:42.263Z,11.77
2019-03-10T17:17:13.557Z,18.98
2019-03-10T17:19:44.894Z,26.23
2019-03-10T17:22:16.333Z,19.05
2019-03-10T17:24:47.571Z,14.98
2019-03-10T17:27:19.009Z,15.78
2019-03-10T17:29:51.853Z,16.75
2019-03-10T17:32:23.082Z,15.72
2019-03-10T17:34:54.515Z,13.70
2019-03-10T17:37:25.991Z,12.65
2019-03-10T17:39:58.956Z,10.70
2019-03-10T17:42:30.411Z,8.10
2019-03-10T17:45:02.127Z,9.18
2019-03-10T17:47:33.532Z,9.50
2019-03-10T17:50:06.845Z,12.20
2019-03-10T17:52:38.168Z,14.85
2019-03-10T17:55:11.906Z,21.90
2019-03-10T17:57:43.284Z,25.80
2019-03-10T18:00:39.003Z,29.70
2019-03-10T18:03:10.316Z,36.17
2019-03-10T18:05:41.687Z,35.60
2019-03-10T18:08:13.106Z,31.93
2019-03-10T18:10:44.453Z,31.77
2019-03-10T18:13:15.838Z,30.27
2019-03-10T18:15:47.220Z,32.00
2019-03-10T18:18:18.649Z,32.38
2019-03-10T18:20:50.092Z,30.70
2019-03-10T18:23:21.953Z,33.05
2019-03-10T18:25:53.393Z,30.88
2019-03-10T18:28:24.847Z,32.03
2019-03-10T18:30:56.298Z,32.30
2019-03-10T18:33:27.600Z,32.65
2019-03-10T18:36:00.249Z,33.33
2019-03-10T18:38:31.593Z,32.23
2019-03-10T18:41:02.903Z,33.33
2019-03-10T18:43:34.169Z,24.15
2019-03-10T18:46:05.633Z,21.57
2019-03-10T18:48:37.675Z,15.03
2019-03-10T18:51:10.160Z,11.55
2019-03-10T18:53:41.599Z,9.78
2019-03-10T18:56:12.961Z,7.87
2019-03-10T18:58:44.287Z,7.53
2019-03-10T19:01:17.024Z,5.85
2019-03-10T19:03:48.253Z,5.92
2019-03-10T19:06:19.437Z,6.05
2019-03-10T19:08:50.687Z,7.10
2019-03-10T19:11:22.071Z,8.05
2019-03-10T19:13:53.304Z,7.83
2019-03-10T19:16:24.659Z,7.58
2019-03-10T19:18:56.003Z,6.08
2019-03-10T19:21:27.320Z,8.33
2019-03-10T19:24:00.090Z,8.20
2019-03-10T19:26:31.330Z,7.30
2019-03-10T19:29:02.550Z,7.15
2019-03-10T19:31:33.803Z,8.15
2019-03-10T19:34:05.073Z,9.23
2019-03-10T19:36:37.629Z,7.65
2019-03-10T19:39:09.040Z,10.10
2019-03-10T19:41:41.763Z,15.00
2019-03-10T19:44:13.163Z,14.63
2019-03-10T19:46:44.933Z,11.55
2019-03-10T19:49:16.241Z,6.87
2019-03-10T19:51:48.758Z,9.00
2019-03-10T19:54:19.999Z,5.62
2019-03-10T19:56:51.209Z,7.40
2019-03-10T19:59:22.614Z,7.92
2019-03-10T20:01:53.965Z,6.87
2019-03-10T20:04:25.275Z,6.30
2019-03-10T20:06:56.558Z,7.05
2019-03-10T20:09:27.878Z,6.92
2019-03-10T20:11:59.090Z,7.85
2019-03-10T20:14:31.444Z,9.20
2019-03-10T20:17:02.771Z,7.22
2019-03-10T20:19:34.035Z,6.05
2019-03-10T20:22:05.186Z,5.45
2019-03-10T20:24:36.573Z,6.28
2019-03-10T20:27:07.814Z,6.78
2019-03-10T20:29:38.886Z,6.03
2019-03-10T20:32:14.176Z,6.33
2019-03-10T20:34:43.193Z,7.55
2019-03-10T20:37:14.342Z,6.08
2019-03-10T20:39:45.546Z,7.83
2019-03-10T20:42:16.812Z,8.35
2019-03-10T20:44:48.173Z,6.92
2019-03-10T20:47:19.512Z,7.33
2019-03-10T20:49:50.666Z,8.13
2019-03-10T20:52:21.928Z,7.45
2019-03-10T20:54:53.132Z,7.72
2019-03-10T20:57:24.378Z,7.60
2019-03-10T21:00:00.530Z,6.62
2019-03-10T21:02:29.015Z,6.45
2019-03-10T21:05:00.352Z,9.38
2019-03-10T21:07:31.745Z,9.33
2019-03-10T21:10:03.083Z,7.70
2019-03-10T21:12:40.680Z,5.75
2019-03-10T21:15:10.370Z,5.83
2019-03-10T21:17:41.515Z,7.17
2019-03-10T21:20:15.558Z,6.65
2019-03-10T21:22:46.885Z,7.30
2019-03-10T21:25:29.985Z,7.65
2019-03-10T21:28:01.207Z,7.65
2019-03-10T21:30:33.982Z,6.62
2019-03-10T21:33:05.205Z,8.20
2019-03-10T21:35:36.407Z,6.12
2019-03-10T21:38:07.522Z,7.87
2019-03-10T21:40:38.901Z,6.95
2019-03-10T21:43:10.116Z,7.17
2019-03-10T21:45:41.420Z,4.65
2019-03-10T21:48:12.663Z,7.47
2019-03-10T21:50:43.882Z,7.03
2019-03-10T21:53:15.060Z,7.30
2019-03-10T21:55:46.382Z,9.03
2019-03-10T22:00:48.881Z,8.18
2019-03-10T22:03:20.090Z,7.60
2019-03-10T22:05:51.481Z,10.03
2019-03-10T22:08:22.946Z,7.95
2019-03-10T22:10:54.092Z,8.08
2019-03-10T22:13:25.386Z,8.15
2019-03-10T22:15:57.071Z,7.30
2019-03-10T22:18:28.416Z,7.22
2019-03-10T22:20:59.792Z,6.80
2019-03-10T22:23:31.039Z,4.90
2019-03-10T22:26:02.276Z,5.85
2019-03-10T22:28:33.558Z,6.15
2019-03-10T22:31:04.855Z,6.45
2019-03-10T22:33:36.132Z,13.98
2019-03-10T22:36:07.543Z,7.20
2019-03-10T22:38:38.673Z,5.87
2019-03-10T22:41:09.860Z,5.28
2019-03-10T22:43:41.067Z,7.33
2019-03-10T22:46:12.730Z,6.25
2019-03-10T22:48:44.013Z,6.78
2019-03-10T22:51:15.193Z,8.58
2019-03-10T22:53:46.578Z,9.55
2019-03-10T22:56:17.785Z,6.75
2019-03-10T22:58:49.167Z,10.85
2019-03-10T23:01:20.521Z,13.28
2019-03-10T23:03:51.833Z,14.40
2019-03-10T23:06:23.189Z,14.83
2019-03-10T23:08:54.458Z,16.52
2019-03-10T23:11:25.796Z,15.98
2019-03-10T23:13:57.191Z,17.92
2019-03-10T23:16:28.385Z,17.15
2019-03-10T23:18:59.774Z,18.35
2019-03-10T23:21:31.112Z,17.07
2019-03-10T23:24:02.395Z,13.58
2019-03-10T23:26:35.035Z,15.45
2019-03-10T23:29:07.494Z,17.42
2019-03-10T23:31:40.034Z,16.57
2019-03-10T23:34:11.315Z,16.85
2019-03-10T23:36:42.756Z,16.93
2019-03-10T23:39:14.200Z,14.73
2019-03-10T23:41:45.575Z,15.45
2019-03-10T23:44:17.117Z,13.72
2019-03-10T23:46:48.550Z,14.65
2019-03-10T23:49:19.806Z,15.18
2019-03-10T23:51:51.260Z,13.08
2019-03-10T23:54:22.516Z,13.32
2019-03-10T23:56:54.463Z,13.65
2019-03-10T23:59:25.912Z,12.45
